Thunder radar more information blitzortung!


Radar de pluja more information rain snow radar


Visita la nostra xarxa de llocs de meteo:

Template documentation
and downloads

And another site



No particular awareness of the weather is required.    There are no Weather-warnings

Pagina Historial Weather Underground text

Diari Resum Marc 10, 2016 Unitats:  Mètric    Imperial   Tant
« Previous Dia
SegĂźent Dia »
Diari Setmana Mensual Anual Personalitzada
  Maxima: Minima: Media:
Temperatura: 16.7 °C 3.1 °C 10.3 °C
Punt de rosada: 2.9 °C -6.1 °C -2.5 °C
Humitat: 65 % 31 % 42 %
Wind Speed: 14.8 km/h 0.0 km/h 4.7 km/h
RĂ fegues de vent: 14.8 km/h - -
Vent:- - South
Pression baro: 1016.8 hPa 1010.0 hPa -
Precipitacions: 0.0 mm    
Historical Graphs
 
 
Dades de taula per Marc 10, 2016
Temps Temperatura Punt de rosada Pression baro Vent Wind Speed RĂ fegues de vent Humitat Rainfall Rate (Hourly)
03:05 4.2 °C -1.8 °C 1010.0 hPa ENE 3.2 km/h 4.8 km/h 65 % 0.0 mm
03:15 4.5 °C -1.5 °C 1010.0 hPa NE 1.6 km/h 6.4 km/h 65 % 0.0 mm
03:25 4.8 °C -1.4 °C 1010.0 hPa North 3.2 km/h 6.4 km/h 64 % 0.0 mm
03:35 5.3 °C -1.2 °C 1010.7 hPa NNE 3.2 km/h 6.4 km/h 63 % 0.0 mm
03:45 5.3 °C -1.2 °C 1010.7 hPa NE 4.8 km/h 8.0 km/h 63 % 0.0 mm
03:55 5.8 °C -0.9 °C 1010.7 hPa NE 1.6 km/h 4.8 km/h 62 % 0.0 mm
04:05 6.1 °C -0.9 °C 1010.7 hPa NE 4.8 km/h 9.7 km/h 61 % 0.0 mm
04:15 6.2 °C -0.8 °C 1010.7 hPa NNE 4.8 km/h 8.0 km/h 61 % 0.0 mm
04:25 6.6 °C -0.4 °C 1010.7 hPa NE 4.8 km/h 6.4 km/h 61 % 0.0 mm
04:35 7.0 °C -0.2 °C 1011.7 hPa ENE 4.8 km/h 6.4 km/h 60 % 0.0 mm
04:45 7.5 °C 0.2 °C 1011.7 hPa NE 1.6 km/h 4.8 km/h 60 % 0.0 mm
04:55 7.8 °C 0.3 °C 1011.7 hPa NE 4.8 km/h 4.8 km/h 59 % 0.0 mm
10:58 7.8 °C 0.3 °C 1011.7 hPa ENE 5.6 km/h 7.2 km/h 59 % 0.0 mm
11:03 8.2 °C 0.4 °C 1011.7 hPa ENE 7.4 km/h 7.4 km/h 58 % 0.0 mm
11:08 8.7 °C 0.9 °C 1011.7 hPa WNW 5.6 km/h 5.6 km/h 58 % 0.0 mm
11:13 8.6 °C 0.6 °C 1011.7 hPa NW 9.3 km/h 9.3 km/h 57 % 0.0 mm
11:18 8.9 °C 0.8 °C 1011.7 hPa ENE 5.0 km/h 5.0 km/h 57 % 0.0 mm
11:23 9.0 °C 0.7 °C 1011.7 hPa ENE 7.4 km/h 7.4 km/h 56 % 0.0 mm
11:28 8.9 °C 0.3 °C 1011.7 hPa ENE 7.4 km/h 7.4 km/h 55 % 0.0 mm
11:33 9.7 °C 1.3 °C 1011.7 hPa South 5.0 km/h 5.0 km/h 56 % 0.0 mm
11:38 10.0 °C 1.4 °C 1011.7 hPa NE 6.9 km/h 6.9 km/h 55 % 0.0 mm
11:43 10.1 °C 1.4 °C 1011.7 hPa NNE 3.7 km/h 3.7 km/h 55 % 0.0 mm
11:48 10.5 °C 1.6 °C 1011.7 hPa WNW 3.7 km/h 3.7 km/h 54 % 0.0 mm
11:53 10.6 °C 1.7 °C 1011.7 hPa NE 7.4 km/h 7.4 km/h 54 % 0.0 mm
12:03 10.8 °C 1.6 °C 1011.7 hPa NNE 6.4 km/h 6.4 km/h 53 % 0.0 mm
12:13 11.4 °C 2.2 °C 1011.7 hPa ENE 7.4 km/h 7.4 km/h 53 % 0.0 mm
12:23 11.7 °C 2.2 °C 1011.7 hPa NE 5.6 km/h 5.6 km/h 52 % 0.0 mm
12:28 12.0 °C 2.4 °C 1011.7 hPa ENE 4.2 km/h 4.2 km/h 52 % 0.0 mm
12:38 12.6 °C 2.7 °C 1011.7 hPa NNE 3.7 km/h 3.7 km/h 51 % 0.0 mm
12:43 12.9 °C 2.7 °C 1011.7 hPa NNW 5.6 km/h 5.6 km/h 50 % 0.0 mm
12:48 13.0 °C 2.5 °C 1011.7 hPa NNE 5.6 km/h 5.6 km/h 49 % 0.0 mm
12:53 13.0 °C 2.5 °C 1011.7 hPa South 3.7 km/h 3.7 km/h 49 % 0.0 mm
12:58 13.2 °C 2.4 °C 1010.7 hPa NNE 5.6 km/h 5.6 km/h 48 % 0.0 mm
13:03 13.4 °C 2.6 °C 1010.7 hPa NNW 5.6 km/h 5.6 km/h 48 % 0.0 mm
13:08 14.1 °C 2.9 °C 1010.7 hPa SSW 5.6 km/h 5.6 km/h 47 % 0.0 mm
13:13 13.9 °C 2.2 °C 1011.7 hPa SW 13.0 km/h 13.0 km/h 45 % 0.0 mm
13:23 14.4 °C 2.6 °C 1011.7 hPa West 1.9 km/h   45 % 0.0 mm
13:28 14.6 °C 2.8 °C 1010.7 hPa NNW 3.7 km/h 3.7 km/h 45 % 0.0 mm
13:33 14.6 °C 2.2 °C 1010.7 hPa NNW 6.4 km/h 6.4 km/h 43 % 0.0 mm
13:38 14.5 °C 2.4 °C 1010.7 hPa WSW 7.4 km/h 7.4 km/h 44 % 0.0 mm
13:43 14.9 °C 2.7 °C 1010.7 hPa West 7.9 km/h 7.9 km/h 44 % 0.0 mm
13:48 15.0 °C 2.5 °C 1010.7 hPa SW 3.7 km/h 3.7 km/h 43 % 0.0 mm
13:53 14.5 °C 0.7 °C 1010.7 hPa WNW 5.6 km/h 5.6 km/h 39 % 0.0 mm
13:58 14.7 °C 0.9 °C 1010.7 hPa ESE 5.6 km/h 5.6 km/h 39 % 0.0 mm
14:03 15.0 °C 1.5 °C 1010.7 hPa SSE 4.2 km/h 4.2 km/h 40 % 0.0 mm
14:08 15.0 °C 1.5 °C 1010.7 hPa WSW 5.8 km/h 5.8 km/h 40 % 0.0 mm
14:13 15.4 °C 0.8 °C 1010.7 hPa SSW 11.9 km/h 11.9 km/h 37 % 0.0 mm
14:18 15.4 °C 0.8 °C 1010.7 hPa SSW 11.1 km/h 11.1 km/h 37 % 0.0 mm
14:23 15.4 °C 0.8 °C 1010.7 hPa SW 5.8 km/h 5.8 km/h 37 % 0.0 mm
14:28 15.4 °C 0.0 °C 1010.7 hPa SW 13.0 km/h 13.0 km/h 35 % 0.0 mm
14:33 15.6 °C -0.2 °C 1010.7 hPa WSW 9.3 km/h 9.3 km/h 34 % 0.0 mm
14:38 15.2 °C -0.6 °C 1010.7 hPa NE 6.1 km/h 6.1 km/h 34 % 0.0 mm
14:43 14.8 °C -0.9 °C 1010.7 hPa ENE 7.4 km/h 7.4 km/h 34 % 0.0 mm
14:48 14.8 °C -0.9 °C 1010.7 hPa WSW 5.6 km/h 5.6 km/h 34 % 0.0 mm
14:53 15.2 °C -0.2 °C 1010.7 hPa SW 7.4 km/h 7.4 km/h 35 % 0.0 mm
14:58 15.9 °C 0.4 °C 1010.7 hPa SW 7.4 km/h 7.4 km/h 35 % 0.0 mm
15:03 16.7 °C 1.2 °C 1010.7 hPa East 7.4 km/h 7.4 km/h 35 % 0.0 mm
15:13 16.5 °C 0.6 °C 1010.7 hPa West 7.4 km/h 7.4 km/h 34 % 0.0 mm
15:18 16.4 °C 0.1 °C 1010.7 hPa SSW 13.0 km/h 13.0 km/h 33 % 0.0 mm
15:23 16.1 °C -0.2 °C 1010.7 hPa SW 7.4 km/h 7.4 km/h 33 % 0.0 mm
15:28 16.2 °C -0.1 °C 1011.7 hPa SW 3.7 km/h 3.7 km/h 33 % 0.0 mm
15:33 16.5 °C 0.2 °C 1011.7 hPa SSW 9.3 km/h 9.3 km/h 33 % 0.0 mm
15:43 15.9 °C -0.8 °C 1010.7 hPa SW 7.4 km/h 7.4 km/h 32 % 0.0 mm
15:48 16.2 °C -0.6 °C 1010.7 hPa SSE 9.3 km/h 9.3 km/h 32 % 0.0 mm
15:53 16.2 °C -0.6 °C 1010.7 hPa SSW 10.3 km/h 10.3 km/h 32 % 0.0 mm
15:58 16.1 °C -1.1 °C 1011.7 hPa SSW 9.3 km/h 9.3 km/h 31 % 0.0 mm
16:03 16.5 °C -0.7 °C 1011.7 hPa WSW 9.7 km/h 9.7 km/h 31 % 0.0 mm
16:08 16.5 °C -0.7 °C 1011.7 hPa WSW 9.3 km/h 9.3 km/h 31 % 0.0 mm
16:13 16.3 °C -0.9 °C 1011.7 hPa NNW 7.4 km/h 7.4 km/h 31 % 0.0 mm
16:18 15.6 °C -1.5 °C 1011.7 hPa East 9.3 km/h 9.3 km/h 31 % 0.0 mm
16:28 15.6 °C -1.5 °C 1011.7 hPa ESE 13.0 km/h 13.0 km/h 31 % 0.0 mm
16:33 14.6 °C -1.9 °C 1011.7 hPa ESE 11.1 km/h 11.1 km/h 32 % 0.0 mm
16:43 14.5 °C -2.0 °C 1011.7 hPa ESE 9.3 km/h 9.3 km/h 32 % 0.0 mm
16:53 14.2 °C -2.3 °C 1011.7 hPa ESE 14.8 km/h 14.8 km/h 32 % 0.0 mm
16:58 14.3 °C -2.2 °C 1011.7 hPa ESE 9.3 km/h 9.3 km/h 32 % 0.0 mm
17:03 14.3 °C -2.2 °C 1011.7 hPa ESE 13.0 km/h 13.0 km/h 32 % 0.0 mm
17:13 14.0 °C -2.4 °C 1011.7 hPa ENE 14.8 km/h 14.8 km/h 32 % 0.0 mm
17:18 13.9 °C -2.6 °C 1011.7 hPa SSE 13.0 km/h 13.0 km/h 32 % 0.0 mm
17:23 13.9 °C -2.6 °C 1011.7 hPa South 13.0 km/h 13.0 km/h 32 % 0.0 mm
17:28 14.3 °C -2.2 °C 1012.8 hPa East 5.6 km/h 5.6 km/h 32 % 0.0 mm
17:33 14.5 °C -1.6 °C 1012.8 hPa SSW 9.3 km/h 9.3 km/h 33 % 0.0 mm
17:38 14.5 °C -1.6 °C 1012.8 hPa SW 13.7 km/h 13.7 km/h 33 % 0.0 mm
17:43 14.4 °C -2.1 °C 1012.8 hPa SW 11.1 km/h 11.1 km/h 32 % 0.0 mm
17:48 14.5 °C -2.0 °C 1012.8 hPa SW 7.4 km/h 7.4 km/h 32 % 0.0 mm
17:50 6.7 °C -4.4 °C 1015.8 hPa Calm   3.2 km/h 45 % 0.0 mm
17:53 14.6 °C -1.9 °C 1012.8 hPa SSW 5.6 km/h 5.6 km/h 32 % 0.0 mm
17:58 14.7 °C -1.8 °C 1012.8 hPa WSW 7.9 km/h 7.9 km/h 32 % 0.0 mm
18:00 6.6 °C -4.5 °C 1015.8 hPa Calm     45 % 0.0 mm
18:03 14.5 °C -2.0 °C 1012.8 hPa WSW 8.7 km/h 8.7 km/h 32 % 0.0 mm
18:08 14.3 °C -2.2 °C 1012.8 hPa SSW 7.6 km/h 7.6 km/h 32 % 0.0 mm
18:10 6.7 °C -4.1 °C 1015.8 hPa NE 1.6 km/h 3.2 km/h 46 % 0.0 mm
18:13 14.0 °C -2.9 °C 1013.8 hPa WSW 9.3 km/h 9.3 km/h 31 % 0.0 mm
18:18 13.6 °C -3.2 °C 1013.8 hPa SW 9.5 km/h 9.5 km/h 31 % 0.0 mm
18:20 6.1 °C -4.7 °C 1015.8 hPa Calm   3.2 km/h 46 % 0.0 mm
18:23 13.3 °C -3.5 °C 1013.8 hPa SW 9.0 km/h 9.0 km/h 31 % 0.0 mm
18:28 13.1 °C -3.7 °C 1012.8 hPa WSW 5.6 km/h 5.6 km/h 31 % 0.0 mm
18:30 5.8 °C -4.9 °C 1015.8 hPa Calm   1.6 km/h 46 % 0.0 mm
18:33 12.9 °C -3.8 °C 1012.8 hPa SW 9.3 km/h 9.3 km/h 31 % 0.0 mm
18:38 12.7 °C -4.0 °C 1012.8 hPa WSW 9.3 km/h 9.3 km/h 31 % 0.0 mm
18:40 5.8 °C -4.7 °C 1015.8 hPa Calm   1.6 km/h 47 % 0.0 mm
18:43 12.5 °C -4.2 °C 1013.8 hPa SW 6.4 km/h 6.4 km/h 31 % 0.0 mm
18:48 12.3 °C -3.9 °C 1013.8 hPa SW 5.6 km/h 5.6 km/h 32 % 0.0 mm
18:50 5.9 °C -4.6 °C 1015.8 hPa North 1.6 km/h 1.6 km/h 47 % 0.0 mm
18:53 12.3 °C -3.9 °C 1013.8 hPa SW 4.7 km/h 4.7 km/h 32 % 0.0 mm
18:58 11.9 °C -4.3 °C 1013.8 hPa WSW 9.3 km/h 9.3 km/h 32 % 0.0 mm
19:00 6.5 °C -3.7 °C 1015.8 hPa WSW 3.2 km/h 3.2 km/h 48 % 0.0 mm
19:03 11.6 °C -4.6 °C 1013.8 hPa WSW 7.9 km/h 7.9 km/h 32 % 0.0 mm
19:08 11.5 °C -4.7 °C 1013.8 hPa SW 5.6 km/h 5.6 km/h 32 % 0.0 mm
19:10 6.4 °C -3.6 °C 1015.8 hPa Calm   3.2 km/h 49 % 0.0 mm
19:13 11.3 °C -4.8 °C 1014.8 hPa WSW 5.6 km/h 5.6 km/h 32 % 0.0 mm
19:18 11.1 °C -5.0 °C 1014.8 hPa SW 5.6 km/h 5.6 km/h 32 % 0.0 mm
19:23 11.0 °C -5.1 °C 1014.8 hPa SSW 5.3 km/h 5.3 km/h 32 % 0.0 mm
19:28 10.8 °C -5.3 °C 1014.8 hPa SW 5.6 km/h 5.6 km/h 32 % 0.0 mm
19:30 5.8 °C -3.8 °C 1015.8 hPa Calm   3.2 km/h 50 % 0.0 mm
19:33 10.8 °C -5.3 °C 1014.8 hPa SW 5.6 km/h 5.6 km/h 32 % 0.0 mm
19:38 10.8 °C -5.3 °C 1014.8 hPa SW 5.6 km/h 5.6 km/h 32 % 0.0 mm
19:40 5.7 °C -3.9 °C 1015.8 hPa Calm   3.2 km/h 50 % 0.0 mm
19:43 10.8 °C -5.3 °C 1014.8 hPa SW 5.6 km/h 5.6 km/h 32 % 0.0 mm
19:48 10.8 °C -5.3 °C 1014.8 hPa SW 5.6 km/h 5.6 km/h 32 % 0.0 mm
19:50 5.5 °C -3.8 °C 1016.8 hPa Calm   3.2 km/h 51 % 0.0 mm
19:53 10.8 °C -5.3 °C 1014.8 hPa North 1.9 km/h   32 % 0.0 mm
19:58 9.9 °C -5.7 °C 1014.8 hPa NNW 1.9 km/h 1.9 km/h 33 % 0.0 mm
20:00 5.2 °C -4.4 °C 1015.8 hPa Calm   1.6 km/h 50 % 0.0 mm
20:03 9.9 °C -5.7 °C 1014.8 hPa NE 1.9 km/h   33 % 0.0 mm
20:08 9.8 °C -5.3 °C 1014.8 hPa Calm     34 % 0.0 mm
20:10 5.0 °C -4.6 °C 1015.8 hPa Calm   1.6 km/h 50 % 0.0 mm
20:13 9.6 °C -5.5 °C 1014.8 hPa Calm     34 % 0.0 mm
20:18 9.5 °C -5.6 °C 1014.8 hPa Calm     34 % 0.0 mm
20:20 4.8 °C -4.8 °C 1015.8 hPa WNW 3.2 km/h 4.8 km/h 50 % 0.0 mm
20:23 9.4 °C -5.7 °C 1014.8 hPa Calm     34 % 0.0 mm
20:28 9.2 °C -5.9 °C 1014.8 hPa Calm     34 % 0.0 mm
20:30 4.6 °C -4.9 °C 1014.8 hPa West 1.6 km/h 3.2 km/h 50 % 0.0 mm
20:33 9.1 °C -5.9 °C 1014.8 hPa Calm     34 % 0.0 mm
20:38 9.0 °C -6.1 °C 1014.8 hPa Calm     34 % 0.0 mm
20:40 4.6 °C -4.9 °C 1014.8 hPa WSW 1.6 km/h 1.6 km/h 50 % 0.0 mm
20:43 9.0 °C -6.1 °C 1014.8 hPa Calm     34 % 0.0 mm
20:48 8.7 °C -5.9 °C 1014.8 hPa Calm     35 % 0.0 mm
20:50 4.5 °C -5.1 °C 1015.8 hPa WSW 1.6 km/h 1.6 km/h 50 % 0.0 mm
20:53 8.6 °C -6.0 °C 1014.8 hPa Calm     35 % 0.0 mm
20:58 8.5 °C -6.1 °C 1014.8 hPa WSW 1.9 km/h   35 % 0.0 mm
21:00 4.4 °C -5.1 °C 1015.8 hPa Calm   1.6 km/h 50 % 0.0 mm
21:03 8.5 °C -5.7 °C 1014.8 hPa Calm     36 % 0.0 mm
21:08 8.5 °C -5.7 °C 1014.8 hPa Calm     36 % 0.0 mm
21:10 4.3 °C -4.9 °C 1015.8 hPa Calm   3.2 km/h 51 % 0.0 mm
21:13 8.4 °C -5.8 °C 1014.8 hPa Calm     36 % 0.0 mm
21:18 8.4 °C -5.5 °C 1014.8 hPa Calm     37 % 0.0 mm
21:20 4.3 °C -4.9 °C 1015.8 hPa WSW 1.6 km/h 3.2 km/h 51 % 0.0 mm
21:23 8.4 °C -5.5 °C 1014.8 hPa Calm     37 % 0.0 mm
21:28 8.3 °C -5.6 °C 1014.8 hPa Calm     37 % 0.0 mm
21:30 4.3 °C -4.9 °C 1015.8 hPa Calm   1.6 km/h 51 % 0.0 mm
21:38 8.3 °C -5.2 °C 1014.8 hPa Calm     38 % 0.0 mm
21:40 4.0 °C -5.2 °C 1015.8 hPa Calm   3.2 km/h 51 % 0.0 mm
21:43 8.2 °C -5.3 °C 1015.8 hPa Calm     38 % 0.0 mm
21:48 8.2 °C -5.3 °C 1015.8 hPa Calm     38 % 0.0 mm
21:53 8.1 °C -5.1 °C 1015.8 hPa Calm     39 % 0.0 mm
21:58 8.1 °C -4.7 °C 1014.8 hPa Calm     40 % 0.0 mm
22:00 3.9 °C -5.3 °C 1015.8 hPa West 1.6 km/h 3.2 km/h 51 % 0.0 mm
22:03 8.0 °C -4.8 °C 1014.8 hPa Calm   2.3 km/h 40 % 0.0 mm
22:08 8.0 °C -4.8 °C 1014.8 hPa Calm   2.3 km/h 40 % 0.0 mm
22:10 3.8 °C -5.4 °C 1015.8 hPa Calm   1.6 km/h 51 % 0.0 mm
22:13 8.0 °C -4.8 °C 1015.8 hPa Calm   2.3 km/h 40 % 0.0 mm
22:18 7.9 °C -4.9 °C 1015.8 hPa Calm   2.3 km/h 40 % 0.0 mm
22:20 3.8 °C -5.2 °C 1015.8 hPa Calm   1.6 km/h 52 % 0.0 mm
22:23 7.8 °C -5.0 °C 1015.8 hPa Calm   2.3 km/h 40 % 0.0 mm
22:28 7.6 °C -5.2 °C 1015.8 hPa WSW 2.3 km/h 2.6 km/h 40 % 0.0 mm
22:30 3.7 °C -5.3 °C 1015.8 hPa Calm     52 % 0.0 mm
22:33 7.5 °C -4.9 °C 1015.8 hPa WSW 2.3 km/h 2.6 km/h 41 % 0.0 mm
22:38 7.4 °C -5.0 °C 1015.8 hPa SW 3.7 km/h 3.7 km/h 41 % 0.0 mm
22:40 7.4 °C -5.0 °C 1015.8 hPa SW 4.2 km/h 4.2 km/h 41 % 0.0 mm
22:45 7.1 °C -5.3 °C 1015.8 hPa WSW 3.9 km/h 3.9 km/h 41 % 0.0 mm
22:50 7.2 °C -5.2 °C 1015.8 hPa SSW 3.7 km/h 3.7 km/h 41 % 0.0 mm
22:55 7.1 °C -5.3 °C 1015.8 hPa WSW 3.7 km/h 3.7 km/h 41 % 0.0 mm
23:00 7.0 °C -5.1 °C 1015.8 hPa SW 2.6 km/h 2.6 km/h 42 % 0.0 mm
23:05 6.9 °C -5.2 °C 1015.8 hPa SW 2.3 km/h 2.6 km/h 42 % 0.0 mm
23:10 6.8 °C -5.2 °C 1015.8 hPa SW 5.6 km/h 5.6 km/h 42 % 0.0 mm
23:15 6.9 °C -4.8 °C 1015.8 hPa SW 3.9 km/h 3.9 km/h 43 % 0.0 mm
23:20 7.0 °C -4.7 °C 1015.8 hPa WSW 3.9 km/h 3.9 km/h 43 % 0.0 mm
23:25 6.9 °C -4.8 °C 1015.8 hPa WSW 3.9 km/h 3.9 km/h 43 % 0.0 mm
23:26 6.9 °C -4.6 °C 1015.8 hPa WSW 3.9 km/h 3.9 km/h 44 % 0.0 mm
23:27 6.9 °C -4.6 °C 1015.8 hPa SW 3.9 km/h 3.9 km/h 44 % 0.0 mm
23:29 6.9 °C -4.6 °C 1015.8 hPa SSW 4.2 km/h 4.2 km/h 44 % 0.0 mm
23:30 6.9 °C -4.6 °C 1015.8 hPa SW 3.7 km/h 3.7 km/h 44 % 0.0 mm
23:35 6.8 °C -4.6 °C 1015.8 hPa SW 6.4 km/h 6.4 km/h 44 % 0.0 mm
23:40 6.8 °C -4.6 °C 1015.8 hPa WSW 3.7 km/h   44 % 0.0 mm
23:50 3.1 °C -5.3 °C 1015.8 hPa West 1.6 km/h 3.2 km/h 54 % 0.0 mm
Meteo Sesrovires
Elogis d' Weather Underground - 3.5 mb

Guio original per  Jim McMurry - jmcmurry@mwt.net Adaptat per a la plantilla per  Wim van der Kuil - Leuven-Template.eu

Trobareu la nostra informacio del temps tambe a:

Weather Underground

AWEKAS